Terminal Aerodrome Forecast
Issued by NWS Tuscon, AZ

Home | Current Version | Previous Version | Text Only | Print | Product List | Glossary On
Versions: 1 2 3 4 5 6 7 8 9 10 11 12 13 14 15 16
000
FTUS45 KTWC 210133 AAC
TAFTUS
TAF AMD
KTUS 210133Z 2102/2124 05004KT P6SM FEW020 BKN060
     FM210400 26010KT P6SM SCT060
     FM210700 14005KT P6SM SKC=

USA.gov is the U.S. government's official web portal to all federal, state and local government web resources and services.